Летающим высоко и низко: ПОГОДА В АЭРОПОРТАХ

Datasource: http://meteocentre.com/cgi-bin/get_taf?STN=UUEE
    за последний срок по а/п  (сейчас 15:11 мск)
UUEE на Метеоцентре                GFS-прогноз по UUEE                   Погода сейчас
UUEE: TAF UUEE 191359Z 1915/2015 21005MPS 9999 BKN020 TX24/2012Z TN16/2002Z

TEMPO 1917/1924 -SHRA BKN011 SCT020CB BECMG 2004/2006 27006MPS

TEMPO 2012/2015 -SHRA BKN020CB=

TAF UUEE 191359Z 1915/2015 21005MPS 9999 BKN020 TX24/2012Z

TN16/2002Z

TEMPO 1917/1924 -SHRA BKN011 SCT020CB

BECMG 2004/2006 27006MPS

TEMPO 2012/2015 -SHRA BKN020CB=

TAF UUEE 191359Z 1915/2015 21005MPS 9999 BKN020 TX24/2012Z TN16/2002Z

TEMPO 1917/1924 -SHRA BKN011 SCT020CB

BECMG 2004/2006 27006MPS

TEMPO 2012/2015 -SHRA BKN020CB=

Авиапрогноз Москва (Шереметьево), составлен 19 августа 17:59 мск:
с 18:00 (19 августа) до 18:00 (20 августа) ветер 210° (ЮЮЗ) 5 м/c; видимость > 10 км; облачн. значительная 600 м; [TX24/2012Z] [TN16/2002Z]
Временами с 20:00 (19 августа) до 3:00 (20 августа) слаб. ливневой дождь; облачн. значительная 330 м; разбросанная 600 м кучево-дождевая;
Постеп. изменение: с 7:00 (20 августа) до 9:00 (20 августа) ветер 270° (З) 6 м/c;
Временами с 15:00 (20 августа) до 18:00 (20 августа) слаб. ливневой дождь; облачн. значительная 600 м кучево-дождевая;

Красным подкрашены опасные явления погоды, синим - предпосылки к ним, читайте комментарии. На данный момент охвачены Россия и Украина. Погода обновляется примерно раз в полчаса, вскоре после наблюдений. Прогноз обновляется примерно раз в час. Для обзорности глядите также фактическую погоду вокруг..., по трехчасовым срокам. Это тестовая версия, любые замечания приветствуются
GeoFAQ - гео-информационные технологии Летающие Болотоходцы

GeoFAQ: по просьбе сообщества Летающие болотоходцы
по рекомендациям Метеоцентра